Skip Navigation LinksHome page > Weather > Current weather Skip Navigation Links

Current Weather

Heathrow, London

For information only: do not use for flight planning or navigation.
Latest weather
Observation time Thursday, August 25, 2016 6:50 AM BST
Local time Thursday, August 25, 2016 7:21 AM BST
Flight conditions Visual Meteorological Conditions
Winds
Wind direction East-Northeast (70°)
Winds variable from 40° to 110°
Wind speed 6 mph
Visibility 5.6 mi.
Present weather light rain
Sky condition
Ceiling unlimited
Cloud layer few clouds 1,200 ft.
Temperature 66°F
Dewpoint 63°F
Altimeter 30.00 in.Hg
Derived measurements
Relative humidity 88%
Density altitude 642 ft.
Remarks
Fully automated report.
No significant changes expected in the next two hours.
METAR EGLL 250550Z AUTO 07005KT 040V110 9000 -RA FEW012 19/17 Q1016 NOSIG

Settings

Location code

InnerDrive.Weather 4.0.5722.1 Release CLR 4.0.30319.34209
Copyright ©2015 Inner Drive Technology. All rights reserved. Portions Copyright ©1986-2015 David Braverman.

Find weather

Site navigation


Skip Navigation Links

Place info

Page info

PayPal - The safer, easier way to pay online!

Return home.

Copyright ©2016 Inner Drive Technology. Purveyors of fine, hand-crafted computer software. Page printed 2016-08-25T06:21:10 UTC.